createdAt,value
2018-09-04T00:00:10.805Z,97976.39
2018-09-04T00:01:13.670Z,97977.49
2018-09-04T00:02:17.012Z,97978.12
2018-09-04T00:03:19.899Z,97978.87
2018-09-04T00:04:22.769Z,97978.05
2018-09-04T00:05:25.633Z,97981.17
2018-09-04T00:06:28.513Z,97987.66
2018-09-04T00:07:31.380Z,97982.17
2018-09-04T00:08:34.573Z,97986.81
2018-09-04T00:09:37.859Z,97981.47
2018-09-04T00:10:40.988Z,97986.22
2018-09-04T00:11:43.909Z,97980.73
2018-09-04T00:12:46.789Z,97979.65
2018-09-04T00:13:49.686Z,97986.37
2018-09-04T00:14:52.939Z,97982.91
2018-09-04T00:15:55.791Z,97986.38
2018-09-04T00:16:58.639Z,97983.19
2018-09-04T00:18:01.642Z,97990.63
2018-09-04T00:19:04.534Z,97990.27
2018-09-04T00:20:07.415Z,97991.86
2018-09-04T00:21:10.669Z,97986.73
2018-09-04T00:22:13.541Z,97989.67
2018-09-04T00:23:16.419Z,97989.75
2018-09-04T00:24:19.300Z,97990.42
2018-09-04T00:25:22.812Z,97990.62
2018-09-04T00:26:25.760Z,97993.36
2018-09-04T00:27:29.564Z,97992.13
2018-09-04T00:28:32.436Z,97993.65
2018-09-04T00:29:35.378Z,97993.23
2018-09-04T00:30:38.249Z,97992.71
2018-09-04T00:31:41.162Z,97992.30
2018-09-04T00:32:44.078Z,97986.72
2018-09-04T00:33:47.282Z,97985.77
2018-09-04T00:34:50.361Z,97984.62
2018-09-04T00:35:53.348Z,97989.33
2018-09-04T00:36:56.205Z,97985.91
2018-09-04T00:37:59.082Z,97984.13
2018-09-04T00:39:01.900Z,97982.45
2018-09-04T00:40:06.119Z,97982.89
2018-09-04T00:41:09.053Z,97987.73
2018-09-04T00:42:11.961Z,97984.47
2018-09-04T00:43:14.837Z,97995.47
2018-09-04T00:44:18.647Z,97991.63
2018-09-04T00:45:21.536Z,97988.92
2018-09-04T00:46:24.822Z,97990.72
2018-09-04T00:47:27.690Z,97989.95
2018-09-04T00:48:30.534Z,97989.17
2018-09-04T00:49:33.414Z,97989.09
2018-09-04T00:50:36.377Z,97983.60
2018-09-04T00:51:39.308Z,97989.53
2018-09-04T00:52:42.469Z,97989.87
2018-09-04T00:53:45.346Z,97989.59
2018-09-04T00:54:48.212Z,97989.34
2018-09-04T00:55:51.120Z,97982.17
2018-09-04T00:56:54.050Z,97985.20
2018-09-04T00:57:56.905Z,97979.27
2018-09-04T00:59:00.167Z,97974.05
2018-09-04T01:00:03.100Z,97981.61
2018-09-04T01:01:06.028Z,97975.67
2018-09-04T01:02:08.928Z,97976.27
2018-09-04T01:03:11.869Z,97982.11
2018-09-04T01:04:24.209Z,97974.66
2018-09-04T01:05:27.841Z,97975.58
2018-09-04T01:06:31.021Z,97976.27
2018-09-04T01:07:34.253Z,97987.09
2018-09-04T01:08:37.398Z,97986.86
2018-09-04T01:09:40.248Z,97980.06
2018-09-04T01:10:43.404Z,97981.93
2018-09-04T01:11:46.285Z,97979.23
2018-09-04T01:12:49.184Z,97976.86
2018-09-04T01:13:52.059Z,97979.96
2018-09-04T01:14:54.915Z,97974.90
2018-09-04T01:15:57.787Z,97975.13
2018-09-04T01:17:01.097Z,97977.22
2018-09-04T01:18:03.968Z,97974.03
2018-09-04T01:19:07.004Z,97972.56
2018-09-04T01:20:10.517Z,97972.34
2018-09-04T01:21:13.368Z,97968.23
2018-09-04T01:22:16.210Z,97970.19
2018-09-04T01:23:19.365Z,97970.88
2018-09-04T01:24:22.228Z,97971.24
2018-09-04T01:25:25.083Z,97971.69
2018-09-04T01:26:27.966Z,97975.11
2018-09-04T01:27:30.952Z,97973.60
2018-09-04T01:28:34.118Z,97969.62
2018-09-04T01:29:37.263Z,97971.15
2018-09-04T01:30:41.801Z,97970.59
2018-09-04T01:31:45.603Z,97965.76
2018-09-04T01:32:48.456Z,97970.74
2018-09-04T01:33:51.678Z,97968.68
2018-09-04T01:34:54.513Z,97963.28
2018-09-04T01:35:57.673Z,97961.64
2018-09-04T01:37:00.535Z,97961.05
2018-09-04T01:38:03.414Z,97955.29
2018-09-04T01:39:06.275Z,97961.10
2018-09-04T01:40:09.160Z,97957.72
2018-09-04T01:41:12.048Z,97959.45
2018-09-04T01:42:15.253Z,97966.08
2018-09-04T01:43:18.104Z,97964.52
2018-09-04T01:44:20.963Z,97968.91
2018-09-04T01:45:23.803Z,97969.40
2018-09-04T01:46:26.669Z,97964.34
2018-09-04T01:47:29.513Z,97963.51
2018-09-04T01:48:32.678Z,97970.16
2018-09-04T01:49:35.525Z,97967.19
2018-09-04T01:50:38.406Z,97967.84
2018-09-04T01:51:41.257Z,97968.86
2018-09-04T01:52:44.113Z,97968.81
2018-09-04T01:53:46.948Z,97969.13
2018-09-04T01:54:50.149Z,97967.30
2018-09-04T01:55:53.063Z,97964.61
2018-09-04T01:56:56.846Z,97964.68
2018-09-04T01:57:59.693Z,97969.61
2018-09-04T01:59:02.562Z,97969.03
2018-09-04T02:00:05.622Z,97969.48
2018-09-04T02:01:08.783Z,97969.80
2018-09-04T02:02:11.621Z,97966.70
2018-09-04T02:03:15.136Z,97971.69
2018-09-04T02:04:18.003Z,97964.05
2018-09-04T02:05:20.864Z,97963.11
2018-09-04T02:06:23.759Z,97965.47
2018-09-04T02:07:27.095Z,97959.37
2018-09-04T02:08:29.980Z,97963.12
2018-09-04T02:09:32.913Z,97960.12
2018-09-04T02:10:35.771Z,97960.48
2018-09-04T02:11:38.722Z,97964.23
2018-09-04T02:12:41.595Z,97964.84
2018-09-04T02:13:44.782Z,97965.80
2018-09-04T02:14:47.635Z,97962.73
2018-09-04T02:15:50.546Z,97959.22
2018-09-04T02:16:53.527Z,97961.31
2018-09-04T02:17:56.404Z,97964.70
2018-09-04T02:18:59.261Z,97961.50
2018-09-04T02:20:02.448Z,97966.08
2018-09-04T02:21:05.297Z,97964.74
2018-09-04T02:22:08.196Z,97963.47
2018-09-04T02:23:11.151Z,97963.60
2018-09-04T02:24:13.996Z,97964.36
2018-09-04T02:25:16.880Z,97963.41
2018-09-04T02:26:20.062Z,97958.06
2018-09-04T02:27:22.982Z,97958.33
2018-09-04T02:28:25.883Z,97955.30
2018-09-04T02:29:28.779Z,97955.82
2018-09-04T02:30:31.642Z,97958.30
2018-09-04T02:31:34.505Z,97960.90
2018-09-04T02:32:37.717Z,97962.00
2018-09-04T02:33:40.581Z,97956.94
2018-09-04T02:34:43.436Z,97967.17
2018-09-04T02:35:46.334Z,97965.38
2018-09-04T02:36:49.209Z,97965.38
2018-09-04T02:37:52.110Z,97972.23
2018-09-04T02:38:55.272Z,97966.98
2018-09-04T02:39:58.137Z,97964.52
2018-09-04T02:41:01.032Z,97969.22
2018-09-04T02:42:03.901Z,97973.11
2018-09-04T02:43:06.816Z,97972.56
2018-09-04T02:44:09.752Z,97970.27
2018-09-04T02:45:13.925Z,97970.45
2018-09-04T02:46:16.828Z,97974.80
2018-09-04T02:47:19.749Z,97968.91
2018-09-04T02:48:22.633Z,97966.08
2018-09-04T02:49:25.558Z,97969.77
2018-09-04T02:50:28.441Z,97973.37
2018-09-04T02:51:31.683Z,97969.22
2018-09-04T02:52:34.589Z,97971.64
2018-09-04T02:53:37.613Z,97979.41
2018-09-04T02:54:40.492Z,97974.33
2018-09-04T02:55:43.354Z,97974.92
2018-09-04T02:56:46.205Z,97972.77
2018-09-04T02:57:49.391Z,97978.06
2018-09-04T02:58:52.361Z,97980.80
2018-09-04T02:59:55.235Z,97983.96
2018-09-04T03:00:58.109Z,97976.20
2018-09-04T03:02:01.036Z,97972.91
2018-09-04T03:03:03.914Z,97977.02
2018-09-04T03:04:07.146Z,97970.23
2018-09-04T03:05:10.068Z,97975.44
2018-09-04T03:06:12.960Z,97974.06
2018-09-04T03:07:15.822Z,97977.84
2018-09-04T03:08:18.708Z,97970.62
2018-09-04T03:09:21.568Z,97967.52
2018-09-04T03:10:24.874Z,97968.56
2018-09-04T03:11:27.799Z,97966.47
2018-09-04T03:12:30.762Z,97972.91
2018-09-04T03:13:33.696Z,97974.05
2018-09-04T03:14:36.628Z,97967.98
2018-09-04T03:15:39.509Z,97973.14
2018-09-04T03:16:42.698Z,97970.62
2018-09-04T03:17:45.545Z,97968.20
2018-09-04T03:18:48.428Z,97968.98
2018-09-04T03:19:51.300Z,97967.06
2018-09-04T03:20:54.239Z,97965.33
2018-09-04T03:21:57.126Z,97961.36
2018-09-04T03:23:00.414Z,97964.91
2018-09-04T03:24:03.306Z,97963.91
2018-09-04T03:25:06.189Z,97963.35
2018-09-04T03:26:09.078Z,97954.77
2018-09-04T03:27:11.959Z,97960.02
2018-09-04T03:28:14.828Z,97960.61
2018-09-04T03:29:18.006Z,97962.11
2018-09-04T03:30:20.890Z,97961.30
2018-09-04T03:31:23.781Z,97959.11
2018-09-04T03:32:26.690Z,97957.64
2018-09-04T03:33:29.613Z,97964.72
2018-09-04T03:34:32.525Z,97964.13
2018-09-04T03:35:35.672Z,97961.89
2018-09-04T03:36:38.769Z,97960.06
2018-09-04T03:37:41.675Z,97955.40
2018-09-04T03:38:44.543Z,97962.31
2018-09-04T03:39:47.592Z,97958.56
2018-09-04T03:40:50.453Z,97960.29
2018-09-04T03:41:53.341Z,97959.24
2018-09-04T03:42:56.293Z,97964.91
2018-09-04T03:44:00.274Z,97964.04
2018-09-04T03:45:03.279Z,97957.78
2018-09-04T03:46:06.143Z,97956.09
2018-09-04T03:47:10.129Z,97955.22
2018-09-04T03:48:13.220Z,97963.34
2018-09-04T03:49:16.101Z,97960.23
2018-09-04T03:50:18.970Z,97959.88
2018-09-04T03:51:21.868Z,97955.11
2018-09-04T03:52:24.846Z,97954.43
2018-09-04T03:53:28.014Z,97960.33
2018-09-04T03:54:31.047Z,97960.10
2018-09-04T03:55:33.898Z,97958.70
2018-09-04T03:56:36.840Z,97959.70
2018-09-04T03:57:39.688Z,97963.39
2018-09-04T03:58:42.569Z,97961.44
2018-09-04T03:59:45.768Z,97961.44
2018-09-04T04:00:48.657Z,97966.48
2018-09-04T04:01:51.526Z,97968.55
2018-09-04T04:02:54.388Z,97957.72
2018-09-04T04:03:57.229Z,97965.94
2018-09-04T04:05:00.106Z,97964.34
2018-09-04T04:06:03.001Z,97958.08
2018-09-04T04:07:05.871Z,97955.70
2018-09-04T04:08:08.749Z,97961.34
2018-09-04T04:09:12.450Z,97961.83
2018-09-04T04:10:15.294Z,97957.01
2018-09-04T04:11:18.471Z,97959.36
2018-09-04T04:12:21.337Z,97962.84
2018-09-04T04:13:24.180Z,97962.61
2018-09-04T04:14:27.060Z,97954.98
2018-09-04T04:15:29.919Z,97963.10
2018-09-04T04:16:32.772Z,97957.07
2018-09-04T04:17:36.027Z,97952.56
2018-09-04T04:18:38.985Z,97962.95
2018-09-04T04:19:41.896Z,97959.86
2018-09-04T04:21:00.643Z,97958.75
2018-09-04T04:22:03.562Z,97961.84
2018-09-04T04:23:06.656Z,97961.61
2018-09-04T04:24:10.537Z,97962.66
2018-09-04T04:25:13.437Z,97962.47
2018-09-04T04:26:16.312Z,97962.94
2018-09-04T04:27:19.184Z,97962.38
2018-09-04T04:28:22.061Z,97960.09
2018-09-04T04:29:25.023Z,97962.38
2018-09-04T04:30:28.208Z,97961.81
2018-09-04T04:31:31.030Z,97965.27
2018-09-04T04:32:34.002Z,97967.55
2018-09-04T04:33:36.882Z,97967.55
2018-09-04T04:34:39.791Z,97969.65
2018-09-04T04:35:42.749Z,97968.70
2018-09-04T04:36:45.936Z,97967.73
2018-09-04T04:37:48.786Z,97977.65
2018-09-04T04:38:51.673Z,97972.41
2018-09-04T04:39:54.683Z,97973.40
2018-09-04T04:40:57.545Z,97974.03
2018-09-04T04:42:00.427Z,97976.97
2018-09-04T04:43:03.626Z,97983.46
2018-09-04T04:44:06.509Z,97978.88
2018-09-04T04:45:09.494Z,97986.17
2018-09-04T04:46:13.492Z,97989.92
2018-09-04T04:47:16.537Z,97987.28
2018-09-04T04:48:19.745Z,97989.44
2018-09-04T04:49:22.918Z,97987.28
2018-09-04T04:50:25.801Z,97990.73
2018-09-04T04:51:28.677Z,97988.78
2018-09-04T04:52:31.607Z,97991.39
2018-09-04T04:53:34.501Z,97992.56
2018-09-04T04:54:37.489Z,97991.19
2018-09-04T04:55:42.044Z,97989.50
2018-09-04T04:56:44.914Z,97991.98
2018-09-04T04:57:47.775Z,97993.77
2018-09-04T04:58:50.663Z,97994.48
2018-09-04T04:59:53.896Z,97997.00
2018-09-04T05:00:57.714Z,97989.03
2018-09-04T05:02:02.593Z,97996.80
2018-09-04T05:03:05.506Z,97997.41
2018-09-04T05:04:08.519Z,98001.63
2018-09-04T05:05:11.407Z,98003.71
2018-09-04T05:06:14.272Z,98002.88
2018-09-04T05:07:17.167Z,98003.77
2018-09-04T05:08:20.418Z,98002.59
2018-09-04T05:09:23.392Z,98004.50
2018-09-04T05:10:26.246Z,98006.48
2018-09-04T05:11:29.164Z,98004.63
2018-09-04T05:12:32.151Z,98006.78
2018-09-04T05:13:35.151Z,98001.05
2018-09-04T05:14:39.544Z,98001.96
2018-09-04T05:15:42.486Z,98001.83
2018-09-04T05:16:45.393Z,97997.20
2018-09-04T05:17:48.335Z,97996.74
2018-09-04T05:18:51.237Z,97999.91
2018-09-04T05:19:54.335Z,98000.47
2018-09-04T05:20:58.993Z,98000.59
2018-09-04T05:22:01.882Z,97994.36
2018-09-04T05:23:04.752Z,97995.93
2018-09-04T05:24:07.605Z,97998.61
2018-09-04T05:25:10.534Z,98002.48
2018-09-04T05:26:14.307Z,97997.37
2018-09-04T05:27:17.936Z,98002.78
2018-09-04T05:28:20.815Z,98004.93
2018-09-04T05:29:23.726Z,98005.16
2018-09-04T05:30:26.635Z,98002.65
2018-09-04T05:33:52.149Z,98011.77
2018-09-04T05:34:55.052Z,98011.19
2018-09-04T05:35:59.408Z,98008.15
2018-09-04T05:37:02.293Z,98018.55
2018-09-04T05:38:05.779Z,98017.51
2018-09-04T05:39:08.928Z,98017.05
2018-09-04T05:40:11.946Z,98019.91
2018-09-04T05:41:14.989Z,98017.41
2018-09-04T05:42:25.620Z,98020.34
2018-09-04T05:43:37.432Z,98016.31
2018-09-04T05:44:40.582Z,98011.84
2018-09-04T05:45:44.020Z,98019.15
2018-09-04T05:46:49.199Z,98012.91
2018-09-04T05:47:55.967Z,98022.95
2018-09-04T05:48:59.480Z,98017.23
2018-09-04T05:50:02.941Z,98018.27
2018-09-04T05:51:06.779Z,98015.40
2018-09-04T05:52:09.962Z,98020.62
2018-09-04T05:53:12.947Z,98016.51
2018-09-04T05:54:15.946Z,98017.33
2018-09-04T05:55:18.990Z,98021.50
2018-09-04T05:56:21.908Z,98019.37
2018-09-04T05:57:24.772Z,98025.28
2018-09-04T05:58:27.985Z,98025.58
2018-09-04T05:59:30.854Z,98025.13
2018-09-04T06:01:04.350Z,98027.51
2018-09-04T06:02:07.297Z,98026.20
2018-09-04T06:03:10.232Z,98026.66
2018-09-04T06:04:13.185Z,98031.29
2018-09-04T06:05:16.833Z,98027.70
2018-09-04T06:06:21.978Z,98029.63
2018-09-04T06:07:25.294Z,98029.98
2018-09-04T06:08:29.466Z,98029.89
2018-09-04T06:09:32.341Z,98026.33
2018-09-04T06:10:36.478Z,98025.19
2018-09-04T06:11:41.272Z,98029.40
2018-09-04T06:12:44.558Z,98026.56
2018-09-04T06:13:47.528Z,98023.36
2018-09-04T06:14:50.475Z,98026.63
2018-09-04T06:15:53.382Z,98034.84
2018-09-04T06:16:56.346Z,98034.55
2018-09-04T06:17:59.503Z,98039.25
2018-09-04T06:19:02.662Z,98034.45
2018-09-04T06:20:05.602Z,98036.94
2018-09-04T06:21:09.076Z,98035.01
2018-09-04T06:22:11.977Z,98029.79
2018-09-04T06:23:15.840Z,98030.67
2018-09-04T06:24:20.975Z,98034.97
2018-09-04T06:25:23.911Z,98036.73
2018-09-04T06:26:26.799Z,98035.50
2018-09-04T06:27:29.796Z,98034.74
2018-09-04T06:28:32.677Z,98031.12
2018-09-04T06:29:35.664Z,98032.84
2018-09-04T06:30:39.116Z,98038.70
2018-09-04T06:31:42.033Z,98034.92
2018-09-04T06:32:45.931Z,98032.50
2018-09-04T06:33:48.869Z,98025.89
2018-09-04T06:34:51.774Z,98030.86
2018-09-04T06:35:55.047Z,98027.59
2018-09-04T06:36:58.376Z,98024.70
2018-09-04T06:38:02.283Z,98028.91
2018-09-04T06:39:05.650Z,98020.53
2018-09-04T06:40:09.546Z,98027.34
2018-09-04T06:41:12.448Z,98028.73
2018-09-04T06:42:15.289Z,98028.22
2018-09-04T06:43:18.770Z,98031.06
2018-09-04T06:44:22.179Z,98032.69
2018-09-04T06:45:25.603Z,98033.47
2018-09-04T06:46:28.627Z,98033.76
2018-09-04T06:47:32.446Z,98039.21
2018-09-04T06:48:37.642Z,98046.30
2018-09-04T06:49:41.826Z,98036.44
2018-09-04T06:50:44.888Z,98040.45
2018-09-04T06:51:48.880Z,98039.84
2018-09-04T06:52:53.332Z,98038.88
2018-09-04T06:53:56.270Z,98039.89
2018-09-04T06:54:59.221Z,98041.59
2018-09-04T06:56:02.614Z,98046.32
2018-09-04T06:57:05.564Z,98041.79
2018-09-04T06:58:08.519Z,98045.28
2018-09-04T06:59:11.705Z,98048.02
2018-09-04T07:00:15.517Z,98044.80
2018-09-04T07:01:18.375Z,98046.78
2018-09-04T07:02:21.589Z,98047.11
2018-09-04T07:03:24.443Z,98049.72
2018-09-04T07:04:27.413Z,98049.91
2018-09-04T07:05:30.344Z,98048.92
2018-09-04T07:06:33.282Z,98048.32
2018-09-04T07:07:36.697Z,98047.28
2018-09-04T07:08:39.910Z,98052.90
2018-09-04T07:09:43.255Z,98049.89
2018-09-04T07:10:46.185Z,98056.47
2018-09-04T07:11:49.219Z,98057.16
2018-09-04T07:12:52.760Z,98054.55
2018-09-04T07:13:57.287Z,98051.13
2018-09-04T07:15:02.173Z,98047.69
2018-09-04T07:16:05.123Z,98048.88
2018-09-04T07:17:08.212Z,98046.09
2018-09-04T07:18:11.169Z,98050.03
2018-09-04T07:19:17.018Z,98049.94
2018-09-04T07:20:20.970Z,98054.41
2018-09-04T07:21:24.224Z,98051.58
2018-09-04T07:22:27.097Z,98057.76
2018-09-04T07:23:30.548Z,98057.89
2018-09-04T07:24:34.159Z,98056.34
2018-09-04T07:25:38.256Z,98057.66
2018-09-04T07:26:41.116Z,98057.16
2018-09-04T07:27:44.381Z,98056.89
2018-09-04T07:28:47.262Z,98055.69
2018-09-04T07:29:52.491Z,98057.27
2018-09-04T07:30:55.553Z,98052.81
2018-09-04T07:31:59.104Z,98055.61
2018-09-04T07:33:02.019Z,98056.14
2018-09-04T07:34:05.477Z,98053.48
2018-09-04T07:35:10.148Z,98053.80
2018-09-04T07:36:16.535Z,98058.64
2018-09-04T07:37:20.477Z,98063.15
2018-09-04T07:38:23.373Z,98061.95
2018-09-04T07:39:27.798Z,98061.44
2018-09-04T07:40:35.440Z,98057.58
2018-09-04T07:41:39.578Z,98060.66
2018-09-04T07:42:42.588Z,98054.86
2018-09-04T07:43:45.524Z,98051.22
2018-09-04T07:44:48.661Z,98050.37
2018-09-04T07:45:52.031Z,98053.55
2018-09-04T07:46:54.986Z,98049.90
2018-09-04T07:47:58.416Z,98055.66
2018-09-04T07:49:01.324Z,98055.97
2018-09-04T07:50:04.237Z,98060.38
2018-09-04T07:51:07.528Z,98055.47
2018-09-04T07:52:10.706Z,98058.16
2018-09-04T07:53:14.526Z,98058.35
2018-09-04T07:54:17.437Z,98057.05
2018-09-04T07:55:20.308Z,98055.69
2018-09-04T07:56:23.401Z,98059.22
2018-09-04T07:57:27.481Z,98053.65
2018-09-04T07:58:31.693Z,98051.12
2018-09-04T07:59:35.635Z,98054.30
2018-09-04T08:00:38.527Z,98053.26
2018-09-04T08:01:41.500Z,98052.23
2018-09-04T08:02:44.444Z,98059.59
2018-09-04T08:03:48.472Z,98052.56
2018-09-04T08:04:51.387Z,98057.50
2018-09-04T08:05:54.324Z,98050.39
2018-09-04T08:06:57.243Z,98058.48
2018-09-04T08:08:01.582Z,98056.43
2018-09-04T08:09:05.728Z,98056.56
2018-09-04T08:10:09.530Z,98057.84
2018-09-04T08:11:12.576Z,98056.87
2018-09-04T08:12:15.453Z,98052.69
2018-09-04T08:13:18.355Z,98055.88
2018-09-04T08:14:21.277Z,98050.16
2018-09-04T08:15:24.225Z,98053.47
2018-09-04T08:16:27.521Z,98054.14
2018-09-04T08:17:30.961Z,98051.95
2018-09-04T08:18:36.384Z,98048.25
2018-09-04T08:19:40.731Z,98051.66
2018-09-04T08:20:44.420Z,98051.11
2018-09-04T08:21:47.396Z,98053.05
2018-09-04T08:22:51.916Z,98048.38
2018-09-04T08:23:54.797Z,98054.05
2018-09-04T08:24:58.256Z,98056.53
2018-09-04T08:26:02.174Z,98050.09
2018-09-04T08:27:06.077Z,98049.37
2018-09-04T08:28:09.060Z,98051.02
2018-09-04T08:29:12.208Z,98057.16
2018-09-04T08:30:15.095Z,98050.66
2018-09-04T08:31:18.027Z,98059.01
2018-09-04T08:32:21.059Z,98055.33
2018-09-04T08:33:23.975Z,98062.49
2018-09-04T08:34:27.649Z,98056.87
2018-09-04T08:35:31.889Z,98059.67
2018-09-04T08:36:36.478Z,98058.24
2018-09-04T08:37:39.417Z,98048.38
2018-09-04T08:38:47.860Z,98053.72
2018-09-04T08:39:52.322Z,98050.25
2018-09-04T08:40:57.069Z,98059.58
2018-09-04T08:42:01.081Z,98050.37
2018-09-04T08:43:04.589Z,98056.86
2018-09-04T08:44:07.529Z,98050.52
2018-09-04T08:45:10.399Z,98048.33
2018-09-04T08:46:13.359Z,98051.14
2018-09-04T08:47:16.354Z,98043.84
2018-09-04T08:48:20.669Z,98042.11
2018-09-04T08:49:24.186Z,98046.26
2018-09-04T08:50:27.881Z,98045.62
2018-09-04T08:51:31.472Z,98044.25
2018-09-04T08:52:37.704Z,98039.52
2018-09-04T08:53:40.689Z,98039.16
2018-09-04T08:54:43.670Z,98042.92
2018-09-04T08:55:47.300Z,98045.52
2018-09-04T08:56:51.692Z,98041.34
2018-09-04T08:57:54.667Z,98038.45
2018-09-04T08:58:57.561Z,98038.05
2018-09-04T09:00:02.812Z,98040.63
2018-09-04T09:01:06.443Z,98039.03
2018-09-04T09:02:09.355Z,98039.39
2018-09-04T09:03:13.345Z,98034.30
2018-09-04T09:04:16.397Z,98033.17
2018-09-04T09:05:20.484Z,98036.84
2018-09-04T09:06:25.920Z,98039.55
2018-09-04T09:07:28.799Z,98036.63
2018-09-04T09:08:33.128Z,98032.82
2018-09-04T09:09:36.232Z,98039.78
2018-09-04T09:11:53.799Z,98041.00
2018-09-04T09:12:57.676Z,98033.70
2018-09-04T09:14:00.562Z,98038.16
2018-09-04T09:15:04.441Z,98036.84
2018-09-04T09:16:07.378Z,98035.05
2018-09-04T09:17:10.567Z,98035.20
2018-09-04T09:18:13.769Z,98031.69
2018-09-04T09:19:16.691Z,98033.13
2018-09-04T09:20:19.595Z,98029.84
2018-09-04T09:21:23.306Z,98032.33
2018-09-04T09:22:26.419Z,98025.60
2018-09-04T09:23:30.088Z,98030.92
2018-09-04T09:24:32.958Z,98024.20
2018-09-04T09:25:35.881Z,98030.90
2018-09-04T09:26:39.452Z,98033.89
2018-09-04T09:27:46.105Z,98033.91
2018-09-04T09:28:49.727Z,98029.31
2018-09-04T09:29:56.946Z,98026.94
2018-09-04T09:31:01.376Z,98033.08
2018-09-04T09:32:05.450Z,98030.95
2018-09-04T09:33:09.404Z,98027.97
2018-09-04T09:34:12.323Z,98023.59
2018-09-04T09:35:15.280Z,98022.01
2018-09-04T09:36:18.744Z,98024.97
2018-09-04T09:37:22.713Z,98022.53
2018-09-04T09:38:26.222Z,98026.29
2018-09-04T09:39:29.196Z,98030.92
2018-09-04T09:40:32.189Z,98027.95
2018-09-04T09:41:35.248Z,98026.34
2018-09-04T09:42:38.633Z,98028.88
2018-09-04T09:43:41.603Z,98031.08
2018-09-04T09:44:46.153Z,98028.30
2018-09-04T09:45:50.599Z,98024.77
2018-09-04T10:33:08.687Z,97994.51
2018-09-04T10:34:11.784Z,97997.13
2018-09-04T10:35:15.465Z,97990.03
2018-09-04T10:36:18.570Z,97988.94
2018-09-04T10:37:23.132Z,97987.09
2018-09-04T10:38:27.178Z,97990.72
2018-09-04T10:39:35.482Z,97988.42
2018-09-04T10:40:43.578Z,97986.46
2018-09-04T10:41:46.459Z,97980.98
2018-09-04T10:42:49.359Z,97985.08
2018-09-04T10:43:52.245Z,97985.81
2018-09-04T10:44:58.050Z,97991.34
2018-09-04T10:46:06.346Z,97985.79
2018-09-04T10:47:09.785Z,97981.81
2018-09-04T10:48:15.049Z,97980.78
2018-09-04T10:49:19.873Z,97981.02
2018-09-04T10:50:24.680Z,97972.53
2018-09-04T10:51:30.300Z,97976.27
2018-09-04T10:52:33.218Z,97972.77
2018-09-04T10:53:36.582Z,97971.24
2018-09-04T10:54:39.821Z,97970.27
2018-09-04T10:55:42.839Z,97969.47
2018-09-04T10:56:45.865Z,97974.45
2018-09-04T10:57:49.868Z,97977.99
2018-09-04T10:58:52.929Z,97976.28
2018-09-04T10:59:55.876Z,97973.94
2018-09-04T11:00:59.262Z,97971.48
2018-09-04T11:02:02.329Z,97972.73
2018-09-04T11:03:06.478Z,97964.84
2018-09-04T11:04:09.732Z,97965.30
2018-09-04T11:05:15.300Z,97966.59
2018-09-04T11:06:18.243Z,97965.64
2018-09-04T11:07:21.191Z,97966.27
2018-09-04T11:08:25.055Z,97970.50
2018-09-04T11:09:28.523Z,97966.33
2018-09-04T11:10:32.750Z,97961.03
2018-09-04T11:11:35.624Z,97960.58
2018-09-04T11:12:39.436Z,97965.55
2018-09-04T11:13:44.020Z,97959.68
2018-09-04T11:14:47.013Z,97960.58
2018-09-04T11:15:50.861Z,97956.09
2018-09-04T11:16:54.624Z,97958.22
2018-09-04T11:17:57.829Z,97947.95
2018-09-04T11:19:01.854Z,97947.65
2018-09-04T11:20:04.835Z,97950.23
2018-09-04T11:21:07.716Z,97951.43
2018-09-04T11:22:10.661Z,97947.83
2018-09-04T11:23:19.080Z,97941.95
2018-09-04T11:24:22.942Z,97949.66
2018-09-04T11:25:25.898Z,97955.09
2018-09-04T11:26:29.001Z,97943.63
2018-09-04T11:27:32.102Z,97946.20
2018-09-04T11:28:34.994Z,97946.14
2018-09-04T11:29:38.200Z,97939.84
2018-09-04T11:30:41.120Z,97947.86
2018-09-04T11:31:44.073Z,97941.16
2018-09-04T11:32:47.014Z,97941.66
2018-09-04T11:33:50.100Z,97941.77
2018-09-04T11:34:53.305Z,97943.30
2018-09-04T11:35:56.612Z,97942.42
2018-09-04T11:36:59.487Z,97946.38
2018-09-04T11:38:02.530Z,97952.47
2018-09-04T11:39:05.588Z,97945.17
2018-09-04T11:40:09.622Z,97941.95
2018-09-04T11:41:14.600Z,97951.55
2018-09-04T11:42:18.022Z,97950.70
2018-09-04T11:43:23.193Z,97944.52
2018-09-04T11:44:26.056Z,97944.02
2018-09-04T11:45:29.304Z,97938.50
2018-09-04T11:46:32.397Z,97935.64
2018-09-04T11:47:35.308Z,97942.00
2018-09-04T11:48:39.951Z,97940.86
2018-09-04T11:49:44.124Z,97936.83
2018-09-04T11:50:47.242Z,97931.95
2018-09-04T11:51:50.172Z,97930.98
2018-09-04T11:52:54.676Z,97930.80
2018-09-04T11:53:58.465Z,97933.78
2018-09-04T11:55:01.762Z,97936.95
2018-09-04T11:57:14.632Z,97934.72
2018-09-04T11:58:18.811Z,97936.12
2018-09-04T11:59:23.349Z,97933.02
2018-09-04T12:00:31.534Z,97931.63
2018-09-04T12:01:34.829Z,97927.07
2018-09-04T12:02:40.030Z,97930.17
2018-09-04T12:03:43.247Z,97928.27
2018-09-04T12:04:46.429Z,97929.45
2018-09-04T12:05:49.490Z,97928.28
2018-09-04T12:06:52.421Z,97924.41
2018-09-04T12:07:55.283Z,97922.92
2018-09-04T12:08:58.296Z,97928.87
2018-09-04T12:10:02.262Z,97929.31
2018-09-04T12:11:05.193Z,97925.41
2018-09-04T12:12:08.488Z,97925.63
2018-09-04T12:13:11.505Z,97930.26
2018-09-04T12:14:17.476Z,97922.92
2018-09-04T12:15:20.374Z,97930.73
2018-09-04T12:16:23.441Z,97927.97
2018-09-04T12:17:26.382Z,97926.94
2018-09-04T12:18:30.277Z,97930.17
2018-09-04T12:19:33.826Z,97934.92
2018-09-04T12:20:36.843Z,97932.88
2018-09-04T12:21:39.841Z,97927.91
2018-09-04T12:22:43.080Z,97939.12
2018-09-04T12:23:46.090Z,97929.33
2018-09-04T12:24:50.382Z,97929.86
2018-09-04T12:25:55.355Z,97928.32
2018-09-04T12:26:58.252Z,97931.42
2018-09-04T12:28:02.644Z,97927.14
2018-09-04T12:29:05.528Z,97917.83
2018-09-04T12:30:08.444Z,97921.36
2018-09-04T12:31:13.006Z,97928.28
2018-09-04T12:32:15.903Z,97921.48
2018-09-04T12:33:18.813Z,97922.34
2018-09-04T12:34:23.350Z,97913.66
2018-09-04T12:35:26.315Z,97913.55
2018-09-04T12:36:30.347Z,97913.83
2018-09-04T12:37:33.606Z,97927.58
2018-09-04T12:38:38.839Z,97924.05
2018-09-04T12:39:45.743Z,97923.82
2018-09-04T12:40:49.369Z,97928.60
2018-09-04T12:41:53.456Z,97923.47
2018-09-04T12:42:57.496Z,97924.34
2018-09-04T12:44:00.828Z,97916.75
2018-09-04T12:45:04.425Z,97911.56
2018-09-04T12:46:07.348Z,97916.08
2018-09-04T12:47:11.318Z,97911.77
2018-09-04T12:48:18.612Z,97916.91
2018-09-04T12:49:22.532Z,97917.77
2018-09-04T12:50:25.752Z,97918.16
2018-09-04T12:51:28.686Z,97916.42
2018-09-04T12:52:31.599Z,97917.09
2018-09-04T12:53:34.963Z,97920.17
2018-09-04T12:54:37.903Z,97922.84
2018-09-04T12:55:40.786Z,97915.50
2018-09-04T12:56:43.993Z,97925.22
2018-09-04T12:57:47.821Z,97917.75
2018-09-04T12:58:50.762Z,97919.51
2018-09-04T12:59:55.852Z,97921.61
2018-09-04T13:01:00.250Z,97921.92
2018-09-04T13:02:03.166Z,97921.84
2018-09-04T13:03:06.468Z,97929.60
2018-09-04T13:04:09.437Z,97932.33
2018-09-04T13:05:12.443Z,97930.70
2018-09-04T13:06:15.375Z,97925.13
2018-09-04T13:07:18.355Z,97934.50
2018-09-04T13:08:22.477Z,97936.44
2018-09-04T13:09:26.691Z,97930.25
2018-09-04T13:10:29.616Z,97937.17
2018-09-04T13:11:32.541Z,97941.16
2018-09-04T13:12:36.906Z,97938.70
2018-09-04T13:13:40.569Z,97940.43
2018-09-04T13:14:45.301Z,97949.09
2018-09-04T13:15:50.562Z,97950.91